Terminal Aerodrome Forecast
Issued by NWS

Home | Current Version | Previous Version | Text Only | Print | Product List | Glossary On
Versions: 1 2 3 4 5 6 7 8 9 10 11 12 13 14 15 16
000
FTUS42 KGSP 292334
TAFAND
TAF
KAND 292334Z 3000/3024 31003KT P6SM SCT045 BKN100
     FM300300 00000KT P6SM SCT250
     FM300600 00000KT 4SM BR SCT250
      TEMPO 3010/3012 2SM BR SCT040
     FM301200 00000KT P6SM SCT250
     FM301500 26004KT P6SM SCT050
     FM301900 29005KT P6SM SCT060 BKN250 PROB30 3019/3023 4SM TSRA
      BKN040CB=

USA.gov is the U.S. government's official web portal to all federal, state and local government web resources and services.